Time;durP1;ratioP1;P1;durP2;ratioP2;P2;SDS_P1;SDS_P2;PMS_P1;PMS_P2;Temp;Humidity;BMP_temperature;BMP_pressure;BME280_temperature;BME280_humidity;BME280_pressure;Samples;Min_cycle;Max_cycle;Signal;HPM_P1;HPM_P2
2024/02/11 00:00:38;;;;;;;2.42;2.22;;;;;;;;;;5010404;28;20030;-76
2024/02/11 00:03:04;;;;;;;2.58;1.88;;;;;;;;;;5012425;28;20068;-75
2024/02/11 00:05:31;;;;;;;3.08;2.33;;;;;;;;;;5013624;28;20124;-76
2024/02/11 00:07:57;;;;;;;3.15;1.77;;;;;;;;;;5010284;28;20146;-77
2024/02/11 00:10:23;;;;;;;3.10;2.20;;;;;;;;;;5006827;28;20512;-76
2024/02/11 00:12:49;;;;;;;3.65;2.10;;;;;;;;;;5012493;28;20484;-77
2024/02/11 00:15:16;;;;;;;2.42;1.98;;;;;;;;;;5014338;28;20013;-77
2024/02/11 00:17:46;;;;;;;3.03;2.20;;;;;;;;;;5014387;28;20018;-76
2024/02/11 00:20:15;;;;;;;3.20;2.20;;;;;;;;;;5009168;28;20040;-76
2024/02/11 00:22:41;;;;;;;2.92;1.98;;;;;;;;;;5009077;28;20033;-76
2024/02/11 00:25:09;;;;;;;2.92;1.95;;;;;;;;;;5010291;28;20357;-76
2024/02/11 00:27:35;;;;;;;2.42;2.10;;;;;;;;;;5015802;28;20013;-76
2024/02/11 00:30:01;;;;;;;3.67;2.22;;;;;;;;;;5013749;28;20013;-76
2024/02/11 00:32:27;;;;;;;2.45;1.90;;;;;;;;;;5018713;28;20018;-77
2024/02/11 00:34:54;;;;;;;3.28;2.10;;;;;;;;;;5010489;28;20037;-75
2024/02/11 00:37:20;;;;;;;3.25;2.17;;;;;;;;;;5008822;28;20033;-77
2024/02/11 00:39:46;;;;;;;5.45;2.67;;;;;;;;;;5007240;28;20025;-77
2024/02/11 00:42:19;;;;;;;2.83;1.83;;;;;;;;;;5005103;28;20100;-76
2024/02/11 00:44:45;;;;;;;2.72;2.15;;;;;;;;;;5007932;28;20216;-77
2024/02/11 00:47:11;;;;;;;3.60;2.47;;;;;;;;;;5007017;28;20022;-76
2024/02/11 00:49:37;;;;;;;3.58;2.25;;;;;;;;;;5009784;28;20048;-76
2024/02/11 00:52:04;;;;;;;1.50;1.40;;;;;;;;;;5013661;28;20034;-76
2024/02/11 00:54:37;;;;;;;1.90;1.70;;;;;;;;;;5013051;28;20034;-77
2024/02/11 00:57:03;;;;;;;3.05;1.90;;;;;;;;;;5012956;28;20030;-77
2024/02/11 00:59:30;;;;;;;1.98;1.83;;;;;;;;;;5010776;28;20044;-77
2024/02/11 01:01:56;;;;;;;2.00;1.80;;;;;;;;;;5012831;28;20029;-76
2024/02/11 01:04:22;;;;;;;2.88;1.80;;;;;;;;;;5012748;28;20026;-75
2024/02/11 01:06:48;;;;;;;3.00;2.08;;;;;;;;;;5010909;28;20200;-76
2024/02/11 01:09:14;;;;;;;4.22;2.20;;;;;;;;;;5011721;28;20022;-76
2024/02/11 01:11:40;;;;;;;5.50;3.97;;;;;;;;;;5013104;28;20393;-75
2024/02/11 01:14:07;;;;;;;3.67;2.25;;;;;;;;;;5012875;28;20096;-76
2024/02/11 01:16:34;;;;;;;4.57;2.67;;;;;;;;;;5011749;28;20030;-76
2024/02/11 01:19:00;;;;;;;2.92;2.15;;;;;;;;;;5013894;28;20030;-76
2024/02/11 01:21:26;;;;;;;3.80;2.65;;;;;;;;;;5016315;28;20095;-76
2024/02/11 01:23:52;;;;;;;4.05;2.40;;;;;;;;;;5015809;28;20410;-76
2024/02/11 01:26:19;;;;;;;4.68;3.00;;;;;;;;;;5013697;28;20029;-76
2024/02/11 01:28:45;;;;;;;5.07;2.83;;;;;;;;;;5015421;28;20022;-75
2024/02/11 01:31:11;;;;;;;4.20;2.80;;;;;;;;;;5016039;28;20022;-75
2024/02/11 01:33:37;;;;;;;6.20;2.58;;;;;;;;;;5015182;28;20029;-76
2024/02/11 01:36:03;;;;;;;3.25;2.50;;;;;;;;;;5014430;28;20041;-75
2024/02/11 01:38:30;;;;;;;4.53;3.25;;;;;;;;;;5013733;28;20451;-76
2024/02/11 01:40:56;;;;;;;5.10;2.63;;;;;;;;;;5014899;28;20033;-75
2024/02/11 01:43:23;;;;;;;5.00;3.10;;;;;;;;;;5021104;28;20093;-75
2024/02/11 01:45:49;;;;;;;5.07;3.70;;;;;;;;;;5015092;28;20021;-76
2024/02/11 01:48:15;;;;;;;6.75;3.78;;;;;;;;;;5015526;28;20022;-76
2024/02/11 01:50:42;;;;;;;7.18;3.33;;;;;;;;;;5014402;28;20046;-75
2024/02/11 01:53:09;;;;;;;5.65;3.42;;;;;;;;;;5014108;28;20026;-74
2024/02/11 01:55:36;;;;;;;4.05;3.10;;;;;;;;;;5017310;28;20037;-75
2024/02/11 01:58:02;;;;;;;6.05;2.95;;;;;;;;;;5021485;28;20014;-76
2024/02/11 02:00:29;;;;;;;6.38;3.25;;;;;;;;;;5016484;28;20033;-76
2024/02/11 02:02:56;;;;;;;4.18;3.55;;;;;;;;;;5015371;28;20022;-76
2024/02/11 02:05:23;;;;;;;6.22;4.18;;;;;;;;;;5014582;28;20112;-76
2024/02/11 02:07:53;;;;;;;8.23;4.13;;;;;;;;;;5015397;28;20030;-76
2024/02/11 02:10:19;;;;;;;4.47;3.20;;;;;;;;;;5014303;28;20107;-76
2024/02/11 02:12:46;;;;;;;4.15;3.00;;;;;;;;;;5015346;28;20030;-76
2024/02/11 02:15:13;;;;;;;3.17;2.85;;;;;;;;;;5006405;28;20037;-76
2024/02/11 02:17:39;;;;;;;2.95;2.40;;;;;;;;;;5014965;28;20022;-76
2024/02/11 02:20:07;;;;;;;3.38;2.60;;;;;;;;;;5013293;28;20683;-76
2024/02/11 02:22:34;;;;;;;6.65;3.00;;;;;;;;;;5013626;28;20026;-76
2024/02/11 02:25:00;;;;;;;3.63;2.63;;;;;;;;;;5014034;28;20022;-77
2024/02/11 02:27:26;;;;;;;4.40;3.50;;;;;;;;;;5013448;28;20026;-76
2024/02/11 02:29:52;;;;;;;4.97;3.45;;;;;;;;;;5015181;28;20014;-77
2024/02/11 02:32:18;;;;;;;5.43;3.35;;;;;;;;;;5014162;28;20022;-76
2024/02/11 02:34:46;;;;;;;5.70;4.10;;;;;;;;;;5013907;28;20067;-76
2024/02/11 02:37:12;;;;;;;6.85;3.85;;;;;;;;;;5022408;28;20026;-76
2024/02/11 02:39:40;;;;;;;5.65;4.00;;;;;;;;;;5029065;28;20049;-76
2024/02/11 02:42:06;;;;;;;6.10;3.67;;;;;;;;;;5022171;28;20037;-76
2024/02/11 02:44:32;;;;;;;6.55;4.13;;;;;;;;;;5014674;28;20034;-76
2024/02/11 02:46:59;;;;;;;5.07;3.92;;;;;;;;;;5014562;28;20045;-76
2024/02/11 02:49:26;;;;;;;6.05;4.10;;;;;;;;;;5014412;28;20018;-75
2024/02/11 02:51:52;;;;;;;8.93;4.90;;;;;;;;;;5013284;28;20030;-76
2024/02/11 02:54:19;;;;;;;6.53;4.72;;;;;;;;;;5014360;28;20026;-76
2024/02/11 02:56:45;;;;;;;5.05;3.47;;;;;;;;;;5014850;28;20022;-76
2024/02/11 02:59:11;;;;;;;6.93;4.18;;;;;;;;;;5016054;28;20040;-76
2024/02/11 03:01:41;;;;;;;5.68;3.88;;;;;;;;;;5014636;28;20318;-76
2024/02/11 03:04:08;;;;;;;5.00;4.22;;;;;;;;;;5014486;28;20022;-75
2024/02/11 03:06:34;;;;;;;5.07;4.25;;;;;;;;;;5015026;28;20045;-76
2024/02/11 03:09:02;;;;;;;7.07;5.10;;;;;;;;;;5014282;28;20033;-76
2024/02/11 03:11:28;;;;;;;6.53;4.78;;;;;;;;;;5013985;28;20021;-76
2024/02/11 03:13:54;;;;;;;9.93;5.47;;;;;;;;;;5013842;28;20032;-75
2024/02/11 03:16:20;;;;;;;6.85;4.72;;;;;;;;;;5015101;28;20033;-76
2024/02/11 03:18:47;;;;;;;5.47;4.13;;;;;;;;;;5014594;28;20038;-78
2024/02/11 03:21:15;;;;;;;4.70;4.07;;;;;;;;;;5013293;28;20025;-76
2024/02/11 03:23:41;;;;;;;6.63;4.40;;;;;;;;;;5017036;28;20452;-77
2024/02/11 03:26:10;;;;;;;9.35;6.10;;;;;;;;;;5014230;28;20034;-76
2024/02/11 03:28:39;;;;;;;7.90;5.75;;;;;;;;;;5014907;28;20068;-76
2024/02/11 03:31:05;;;;;;;8.82;6.07;;;;;;;;;;5013417;28;20030;-76
2024/02/11 03:33:32;;;;;;;7.22;4.97;;;;;;;;;;5013634;28;20022;-76
2024/02/11 03:35:58;;;;;;;6.40;4.82;;;;;;;;;;5011795;28;20539;-76
2024/02/11 03:38:24;;;;;;;6.22;4.45;;;;;;;;;;5013901;28;20029;-77
2024/02/11 03:40:53;;;;;;;5.63;4.45;;;;;;;;;;5013482;28;20029;-76
2024/02/11 03:43:21;;;;;;;7.03;5.03;;;;;;;;;;5013190;28;20053;-75
2024/02/11 03:45:47;;;;;;;6.70;5.45;;;;;;;;;;5012328;28;20025;-76
2024/02/11 03:48:14;;;;;;;7.45;5.75;;;;;;;;;;4997090;28;20504;-76
2024/02/11 03:50:40;;;;;;;8.77;5.55;;;;;;;;;;5011924;28;20057;-76
2024/02/11 03:53:07;;;;;;;6.57;5.03;;;;;;;;;;5012921;28;20030;-76
2024/02/11 03:55:33;;;;;;;6.50;4.82;;;;;;;;;;5011309;28;20037;-76
2024/02/11 03:58:02;;;;;;;8.02;6.60;;;;;;;;;;5012679;28;20026;-77
2024/02/11 04:00:32;;;;;;;8.43;6.45;;;;;;;;;;5013929;28;20029;-76
2024/02/11 04:02:58;;;;;;;11.10;7.90;;;;;;;;;;5011827;28;20030;-76
2024/02/11 04:05:26;;;;;;;8.80;6.60;;;;;;;;;;5013815;28;20022;-77
2024/02/11 04:07:53;;;;;;;9.38;6.55;;;;;;;;;;5012980;28;20030;-76
2024/02/11 04:10:22;;;;;;;8.95;7.05;;;;;;;;;;5011706;28;20028;-75
2024/02/11 04:12:48;;;;;;;8.70;6.53;;;;;;;;;;5013008;28;20079;-76
2024/02/11 04:15:15;;;;;;;7.95;6.18;;;;;;;;;;5004308;28;20411;-76
2024/02/11 04:17:42;;;;;;;7.38;6.20;;;;;;;;;;5013379;28;20022;-76
2024/02/11 04:20:15;;;;;;;8.40;6.07;;;;;;;;;;5011405;28;20021;-76
2024/02/11 04:22:42;;;;;;;7.63;6.28;;;;;;;;;;5012773;28;20072;-76
2024/02/11 04:25:11;;;;;;;7.80;6.15;;;;;;;;;;5012222;28;20564;-76
2024/02/11 04:27:41;;;;;;;6.43;4.97;;;;;;;;;;5013312;28;20026;-79
2024/02/11 04:30:12;;;;;;;5.22;4.57;;;;;;;;;;5012700;28;20014;-76
2024/02/11 04:32:42;;;;;;;6.93;5.93;;;;;;;;;;5011815;28;20077;-76
2024/02/11 04:35:12;;;;;;;6.70;5.80;;;;;;;;;;5013820;28;20037;-76
2024/02/11 04:37:44;;;;;;;5.50;4.95;;;;;;;;;;5013392;28;20476;-77
2024/02/11 04:40:10;;;;;;;6.53;5.03;;;;;;;;;;5011846;28;20437;-77
2024/02/11 04:42:44;;;;;;;6.78;5.40;;;;;;;;;;5013206;28;20056;-77
2024/02/11 04:45:14;;;;;;;8.50;6.47;;;;;;;;;;5010098;28;20026;-77
2024/02/11 04:47:41;;;;;;;7.60;6.25;;;;;;;;;;5012905;28;20050;-77
2024/02/11 04:50:11;;;;;;;8.07;6.55;;;;;;;;;;5015342;28;20050;-77
2024/02/11 04:52:40;;;;;;;6.88;5.57;;;;;;;;;;5015741;28;20026;-77
2024/02/11 04:55:07;;;;;;;7.15;5.10;;;;;;;;;;5013189;28;20046;-77
2024/02/11 04:57:38;;;;;;;3.78;3.10;;;;;;;;;;5016984;28;20034;-76
2024/02/11 05:00:10;;;;;;;3.47;2.42;;;;;;;;;;5016837;28;20591;-76
2024/02/11 05:02:39;;;;;;;1.23;1.05;;;;;;;;;;5017466;28;20113;-76
2024/02/11 05:05:07;;;;;;;0.30;0.30;;;;;;;;;;5013972;28;20100;-77
2024/02/11 05:07:34;;;;;;;0.10;0.10;;;;;;;;;;5014911;28;20029;-78
2024/02/11 05:10:00;;;;;;;0.65;0.22;;;;;;;;;;5010208;28;20080;-77
2024/02/11 05:12:26;;;;;;;0.20;0.20;;;;;;;;;;5017259;28;20026;-77
2024/02/11 05:14:52;;;;;;;0.60;0.10;;;;;;;;;;5014831;28;20538;-78
2024/02/11 05:17:19;;;;;;;0.75;0.10;;;;;;;;;;5016888;28;20026;-77
2024/02/11 05:19:45;;;;;;;0.10;0.10;;;;;;;;;;5015535;28;20101;-77
2024/02/11 05:22:11;;;;;;;0.95;0.10;;;;;;;;;;5014955;28;20421;-76
2024/02/11 05:24:40;;;;;;;0.10;0.10;;;;;;;;;;5014946;28;20030;-76
2024/02/11 05:27:08;;;;;;;0.03;0.03;;;;;;;;;;5010256;28;20014;-77
2024/02/11 05:29:34;;;;;;;0.00;0.00;;;;;;;;;;5013332;28;20025;-77
2024/02/11 05:32:00;;;;;;;0.32;0.15;;;;;;;;;;5015585;28;20021;-78
2024/02/11 05:34:27;;;;;;;0.35;0.10;;;;;;;;;;5012897;28;20026;-78
2024/02/11 05:36:55;;;;;;;0.00;0.00;;;;;;;;;;5012302;28;20554;-78
2024/02/11 05:39:22;;;;;;;0.90;0.00;;;;;;;;;;5014507;28;20030;-76
2024/02/11 05:41:48;;;;;;;0.00;0.00;;;;;;;;;;5012661;28;20468;-77
2024/02/11 05:44:14;;;;;;;0.00;0.00;;;;;;;;;;5012372;28;20117;-77
2024/02/11 05:46:40;;;;;;;0.08;0.00;;;;;;;;;;5015963;28;20025;-76
2024/02/11 05:49:08;;;;;;;0.08;0.00;;;;;;;;;;5014903;28;20555;-76
2024/02/11 05:51:34;;;;;;;0.10;0.05;;;;;;;;;;5015813;28;20068;-76
2024/02/11 05:54:00;;;;;;;0.20;0.10;;;;;;;;;;5015722;28;20040;-77
2024/02/11 05:56:26;;;;;;;0.05;0.00;;;;;;;;;;5015088;28;20032;-76
2024/02/11 05:58:52;;;;;;;0.20;0.10;;;;;;;;;;5016419;28;20025;-77
2024/02/11 06:01:19;;;;;;;0.63;0.50;;;;;;;;;;5017234;28;20034;-77
2024/02/11 06:03:45;;;;;;;0.70;0.13;;;;;;;;;;5017682;28;20026;-77
2024/02/11 06:06:13;;;;;;;0.65;0.22;;;;;;;;;;5015335;28;20038;-77
2024/02/11 06:08:39;;;;;;;0.20;0.20;;;;;;;;;;5020922;28;20026;-76
2024/02/11 06:11:06;;;;;;;0.20;0.20;;;;;;;;;;5014686;28;20034;-75
2024/02/11 06:13:33;;;;;;;0.80;0.30;;;;;;;;;;5015188;28;20033;-77
2024/02/11 06:15:59;;;;;;;0.28;0.28;;;;;;;;;;5015308;28;20388;-77
2024/02/11 06:18:26;;;;;;;0.47;0.47;;;;;;;;;;5019453;28;20030;-76
2024/02/11 06:20:53;;;;;;;0.45;0.45;;;;;;;;;;5020413;28;20385;-77
2024/02/11 06:23:20;;;;;;;0.47;0.20;;;;;;;;;;5019276;28;20081;-76
2024/02/11 06:25:46;;;;;;;0.20;0.20;;;;;;;;;;5017491;28;20531;-77
2024/02/11 06:28:12;;;;;;;0.43;0.20;;;;;;;;;;5022273;28;20042;-77
2024/02/11 06:30:38;;;;;;;0.30;0.30;;;;;;;;;;5020170;28;20104;-77
2024/02/11 06:33:10;;;;;;;0.28;0.28;;;;;;;;;;5017918;28;20078;-77
2024/02/11 06:35:36;;;;;;;0.20;0.20;;;;;;;;;;5017719;28;20026;-77
2024/02/11 06:38:04;;;;;;;0.30;0.30;;;;;;;;;;5017998;28;20030;-78
2024/02/11 06:40:31;;;;;;;0.40;0.40;;;;;;;;;;5015296;28;20030;-75
2024/02/11 06:42:59;;;;;;;0.15;0.15;;;;;;;;;;5005295;28;20128;-78
2024/02/11 06:45:27;;;;;;;0.13;0.13;;;;;;;;;;5003098;28;20093;-77
2024/02/11 06:47:53;;;;;;;0.30;0.30;;;;;;;;;;5026510;28;20026;-76
2024/02/11 06:50:20;;;;;;;0.28;0.28;;;;;;;;;;5020891;28;20026;-77
2024/02/11 06:52:50;;;;;;;0.13;0.13;;;;;;;;;;5011219;28;20030;-76
2024/02/11 06:55:18;;;;;;;0.20;0.20;;;;;;;;;;5011985;28;20030;-77
2024/02/11 06:57:45;;;;;;;0.30;0.30;;;;;;;;;;5010598;28;20030;-77
2024/02/11 07:00:12;;;;;;;0.30;0.30;;;;;;;;;;5009417;28;20026;-77
2024/02/11 07:02:39;;;;;;;1.63;0.98;;;;;;;;;;5006064;28;20489;-77
2024/02/11 07:05:05;;;;;;;3.92;2.60;;;;;;;;;;5006785;28;20034;-77
2024/02/11 07:07:33;;;;;;;1.40;1.30;;;;;;;;;;5011356;28;20030;-77
2024/02/11 07:09:59;;;;;;;1.52;1.42;;;;;;;;;;5008344;28;20033;-76
2024/02/11 07:12:25;;;;;;;1.60;1.50;;;;;;;;;;5003597;28;20019;-78
2024/02/11 07:14:52;;;;;;;0.70;0.70;;;;;;;;;;5009912;28;20038;-77
2024/02/11 07:17:19;;;;;;;0.60;0.60;;;;;;;;;;5014063;28;20025;-77
2024/02/11 07:19:48;;;;;;;0.55;0.40;;;;;;;;;;5010967;28;20028;-77
2024/02/11 07:22:14;;;;;;;0.28;0.20;;;;;;;;;;5012639;28;20136;-77
2024/02/11 07:24:43;;;;;;;0.20;0.20;;;;;;;;;;5009503;28;20030;-77
2024/02/11 07:27:14;;;;;;;1.10;0.40;;;;;;;;;;5011280;28;20024;-76
2024/02/11 07:29:43;;;;;;;0.43;0.43;;;;;;;;;;5006484;28;20050;-77
2024/02/11 07:32:10;;;;;;;0.30;0.30;;;;;;;;;;5012634;28;20021;-76
2024/02/11 07:34:37;;;;;;;0.70;0.70;;;;;;;;;;5010505;28;20023;-77
2024/02/11 07:37:03;;;;;;;0.70;0.70;;;;;;;;;;5013248;28;20068;-76
2024/02/11 07:39:30;;;;;;;1.80;0.65;;;;;;;;;;5003801;28;20253;-77
2024/02/11 07:42:02;;;;;;;1.15;1.08;;;;;;;;;;5057106;28;20411;-77
2024/02/11 07:44:28;;;;;;;1.95;1.85;;;;;;;;;;5059146;28;20036;-77
2024/02/11 07:46:55;;;;;;;1.55;1.33;;;;;;;;;;5052897;28;20419;-77
2024/02/11 07:49:24;;;;;;;1.23;0.90;;;;;;;;;;5050949;28;20391;-77
2024/02/11 07:51:54;;;;;;;0.70;0.70;;;;;;;;;;5066238;28;20364;-77
2024/02/11 07:54:23;;;;;;;0.93;0.93;;;;;;;;;;5058337;28;20033;-77
2024/02/11 07:56:52;;;;;;;0.80;0.80;;;;;;;;;;5056632;28;20025;-78
2024/02/11 07:59:18;;;;;;;0.73;0.73;;;;;;;;;;5059124;28;20021;-77
2024/02/11 08:01:45;;;;;;;0.60;0.60;;;;;;;;;;5058659;28;20048;-77
2024/02/11 08:04:14;;;;;;;0.70;0.70;;;;;;;;;;5056568;28;20055;-78
2024/02/11 08:06:40;;;;;;;0.60;0.60;;;;;;;;;;5055902;28;20152;-77
2024/02/11 08:09:09;;;;;;;0.93;0.88;;;;;;;;;;5056845;28;20064;-78
2024/02/11 08:11:36;;;;;;;4.43;3.20;;;;;;;;;;5059728;28;20537;-77
2024/02/11 08:14:03;;;;;;;2.60;2.08;;;;;;;;;;5058319;28;20467;-77
2024/02/11 08:16:29;;;;;;;3.95;3.00;;;;;;;;;;5060965;28;20021;-77
2024/02/11 08:18:56;;;;;;;10.85;6.68;;;;;;;;;;5056130;28;20029;-76
2024/02/11 08:21:22;;;;;;;7.97;5.45;;;;;;;;;;5057587;28;20388;-77
2024/02/11 08:23:48;;;;;;;3.30;2.50;;;;;;;;;;5052337;28;20496;-77
2024/02/11 08:26:14;;;;;;;2.63;1.48;;;;;;;;;;5058081;28;20033;-77
2024/02/11 08:28:40;;;;;;;1.13;1.13;;;;;;;;;;5057532;28;20029;-77
2024/02/11 08:31:06;;;;;;;1.05;1.05;;;;;;;;;;5059904;28;20022;-78
2024/02/11 08:33:33;;;;;;;1.00;1.00;;;;;;;;;;5057427;28;20028;-78
2024/02/11 08:35:59;;;;;;;0.63;0.63;;;;;;;;;;5054518;28;20037;-77
2024/02/11 08:38:26;;;;;;;0.98;0.98;;;;;;;;;;5071577;28;20075;-77
2024/02/11 08:40:52;;;;;;;0.90;0.90;;;;;;;;;;5058294;28;20036;-77
2024/02/11 08:43:19;;;;;;;0.82;0.82;;;;;;;;;;5062557;28;20029;-75
2024/02/11 08:53:08;;;;;;;0.93;0.93;;;;;;;;;;5019314;28;20492;-77
2024/02/11 08:58:53;;;;;;;;;;;;;;;;;;4988294;28;20571;-77
2024/02/11 09:08:11;;;;;;;2.65;1.13;;;;;;;;;;4994323;28;20120;-77
2024/02/11 09:10:54;;;;;;;2.33;1.23;;;;;;;;;;5002370;28;20034;-77
2024/02/11 09:19:52;;;;;;;;;;;;;;;;;;;;;
2024/02/11 09:35:20;;;;;;;3.55;2.05;;;;;;;;;;5041846;28;20116;-76
2024/02/11 09:38:06;;;;;;;3.58;2.40;;;;;;;;;;5045188;28;20017;-77
2024/02/11 09:40:48;;;;;;;7.60;5.20;;;;;;;;;;5036379;28;20029;-77
2024/02/11 09:46:59;;;;;;;;;;;;;;;;;;;;;
2024/02/11 09:56:06;;;;;;;;;;;;;;;;;;;;;
2024/02/11 09:58:53;;;;;;;1.48;1.38;;;;;;;;;;5051660;28;20021;-76
2024/02/11 10:11:29;;;;;;;;;;;;;;;;;;;;;
2024/02/11 10:14:29;;;;;;;;;;;;;;;;;;;;;
2024/02/11 10:30:33;;;;;;;2.00;1.40;;;;;;;;;;4992324;28;20022;-77
2024/02/11 10:33:21;;;;;;;2.53;1.92;;;;;;;;;;4932326;29;20020;-78
2024/02/11 10:42:13;;;;;;;2.33;1.63;;;;;;;;;;5047296;28;20045;-77
2024/02/11 10:44:43;;;;;;;3.55;1.90;;;;;;;;;;5046458;28;20017;-77
2024/02/11 10:47:09;;;;;;;2.85;2.00;;;;;;;;;;5051448;28;20030;-77
2024/02/11 10:49:35;;;;;;;4.18;2.53;;;;;;;;;;5054565;28;20025;-78
2024/02/11 10:52:09;;;;;;;2.03;1.77;;;;;;;;;;5054385;28;20053;-77
2024/02/11 10:54:41;;;;;;;3.47;2.20;;;;;;;;;;5055008;28;20116;-76
2024/02/11 10:57:12;;;;;;;4.37;2.30;;;;;;;;;;5052712;28;20029;-78
2024/02/11 10:59:41;;;;;;;2.38;1.85;;;;;;;;;;5053969;28;20014;-77
2024/02/11 11:02:09;;;;;;;4.18;2.58;;;;;;;;;;5052762;28;20101;-75
2024/02/11 11:04:37;;;;;;;2.72;2.38;;;;;;;;;;5052115;28;20026;-76
2024/02/11 11:07:06;;;;;;;2.30;2.10;;;;;;;;;;5054203;28;20045;-76
2024/02/11 11:09:32;;;;;;;2.15;1.77;;;;;;;;;;5051158;28;20045;-77
2024/02/11 11:12:08;;;;;;;2.00;1.80;;;;;;;;;;5051058;28;20021;-77
2024/02/11 11:14:34;;;;;;;2.17;1.75;;;;;;;;;;5046088;28;20017;-76
2024/02/11 11:17:04;;;;;;;2.35;1.95;;;;;;;;;;5048869;28;20021;-80
2024/02/11 11:19:32;;;;;;;2.60;2.00;;;;;;;;;;5056725;28;20044;-78
2024/02/11 11:22:00;;;;;;;3.63;1.95;;;;;;;;;;5055685;28;20160;-78
2024/02/11 11:24:27;;;;;;;3.70;2.38;;;;;;;;;;5055195;28;20005;-79
2024/02/11 11:26:53;;;;;;;3.30;2.40;;;;;;;;;;5053947;28;20031;-78
2024/02/11 11:29:25;;;;;;;2.67;2.22;;;;;;;;;;5054976;28;20029;-78
2024/02/11 11:31:54;;;;;;;4.13;2.38;;;;;;;;;;5055582;28;20009;-78
2024/02/11 11:34:20;;;;;;;4.22;3.08;;;;;;;;;;5055318;28;20041;-79
2024/02/11 11:36:46;;;;;;;3.72;2.58;;;;;;;;;;5053854;28;20018;-78
2024/02/11 11:39:13;;;;;;;3.53;2.70;;;;;;;;;;5056149;28;20036;-79
2024/02/11 11:41:40;;;;;;;2.58;2.35;;;;;;;;;;5055083;28;20048;-79
2024/02/11 11:44:06;;;;;;;4.13;3.05;;;;;;;;;;5055270;28;20009;-78
2024/02/11 11:46:32;;;;;;;3.05;2.53;;;;;;;;;;5054248;28;20022;-79
2024/02/11 11:48:59;;;;;;;3.10;2.38;;;;;;;;;;5052754;28;20044;-79
2024/02/11 11:51:28;;;;;;;5.07;3.05;;;;;;;;;;5052968;28;20029;-78
2024/02/11 11:53:54;;;;;;;3.63;2.75;;;;;;;;;;5053732;28;20029;-79
2024/02/11 11:56:20;;;;;;;4.63;2.70;;;;;;;;;;5050622;28;20132;-79
2024/02/11 11:58:47;;;;;;;2.47;1.95;;;;;;;;;;5051767;28;20029;-78
2024/02/11 12:01:15;;;;;;;3.45;2.30;;;;;;;;;;5053401;28;20085;-80
2024/02/11 12:03:42;;;;;;;2.42;2.10;;;;;;;;;;5053426;28;20017;-80
2024/02/11 12:06:08;;;;;;;4.00;2.25;;;;;;;;;;5053787;28;20029;-79
2024/02/11 12:08:35;;;;;;;3.03;2.53;;;;;;;;;;5051094;28;20030;-79
2024/02/11 12:11:03;;;;;;;6.07;2.47;;;;;;;;;;5050039;28;20029;-79
2024/02/11 12:13:31;;;;;;;2.25;1.92;;;;;;;;;;5051619;28;20025;-79
2024/02/11 12:15:57;;;;;;;2.25;1.80;;;;;;;;;;5046903;28;20038;-80
2024/02/11 12:18:25;;;;;;;2.67;2.38;;;;;;;;;;5050140;28;20472;-80
2024/02/11 12:20:53;;;;;;;2.53;2.30;;;;;;;;;;5052039;28;20029;-79
2024/02/11 12:23:19;;;;;;;3.10;1.98;;;;;;;;;;5053517;28;20022;-80
2024/02/11 12:25:51;;;;;;;2.78;2.20;;;;;;;;;;5052747;28;20148;-78
2024/02/11 12:28:25;;;;;;;2.35;2.10;;;;;;;;;;5056376;28;20034;-80
2024/02/11 12:30:51;;;;;;;3.05;2.20;;;;;;;;;;5057959;28;20025;-79
2024/02/11 12:33:18;;;;;;;3.22;2.22;;;;;;;;;;5055881;28;20021;-79
2024/02/11 12:35:44;;;;;;;2.33;2.00;;;;;;;;;;5045770;28;20151;-79
2024/02/11 12:38:10;;;;;;;2.75;2.05;;;;;;;;;;5052136;28;20080;-79
2024/02/11 12:40:40;;;;;;;2.22;2.03;;;;;;;;;;5051450;28;20022;-80
2024/02/11 12:43:07;;;;;;;3.35;2.20;;;;;;;;;;5059582;28;20018;-80
2024/02/11 12:45:33;;;;;;;2.63;2.00;;;;;;;;;;5047993;28;20017;-78
2024/02/11 12:47:59;;;;;;;3.38;1.92;;;;;;;;;;5053702;28;20026;-78
2024/02/11 12:50:26;;;;;;;2.25;1.77;;;;;;;;;;5050617;28;20105;-81
2024/02/11 12:52:53;;;;;;;3.28;2.40;;;;;;;;;;5052895;28;20089;-79
2024/02/11 12:55:19;;;;;;;3.33;2.10;;;;;;;;;;5055747;28;20036;-79
2024/02/11 12:57:46;;;;;;;2.85;2.20;;;;;;;;;;5045625;28;20084;-79
2024/02/11 13:00:13;;;;;;;3.50;2.30;;;;;;;;;;5040429;28;20068;-79
2024/02/11 13:02:42;;;;;;;2.65;2.38;;;;;;;;;;5029656;28;20101;-78
2024/02/11 13:05:13;;;;;;;1.73;1.50;;;;;;;;;;5045747;28;20021;-80
2024/02/11 13:07:39;;;;;;;2.63;1.90;;;;;;;;;;5052100;28;20013;-80
2024/02/11 13:10:08;;;;;;;2.60;2.08;;;;;;;;;;5037752;28;20034;-79
2024/02/11 13:12:38;;;;;;;3.50;2.58;;;;;;;;;;5060566;28;20049;-81
2024/02/11 13:15:10;;;;;;;2.53;2.30;;;;;;;;;;5044059;28;20018;-79
2024/02/11 13:17:41;;;;;;;3.33;2.25;;;;;;;;;;5043326;28;20121;-78
2024/02/11 13:20:08;;;;;;;2.53;2.13;;;;;;;;;;5041332;28;20464;-81
2024/02/11 13:22:38;;;;;;;2.78;2.20;;;;;;;;;;5042588;28;20014;-78
2024/02/11 13:25:10;;;;;;;2.95;2.25;;;;;;;;;;5042693;28;20021;-80
2024/02/11 13:27:41;;;;;;;2.97;2.08;;;;;;;;;;5042815;28;20112;-80
2024/02/11 13:30:08;;;;;;;4.38;2.17;;;;;;;;;;5041544;28;20030;-80
2024/02/11 13:32:34;;;;;;;1.92;1.70;;;;;;;;;;5041488;28;20037;-79
2024/02/11 13:35:01;;;;;;;2.25;1.60;;;;;;;;;;5038161;28;20489;-80
2024/02/11 13:37:28;;;;;;;2.03;1.65;;;;;;;;;;5048722;28;20029;-80
2024/02/11 13:39:54;;;;;;;3.90;2.35;;;;;;;;;;5039514;28;20037;-80
2024/02/11 13:42:21;;;;;;;2.35;1.92;;;;;;;;;;5043291;28;20029;-80
2024/02/11 13:44:47;;;;;;;3.03;2.03;;;;;;;;;;5043232;28;20013;-79
2024/02/11 13:47:14;;;;;;;2.30;1.80;;;;;;;;;;5041149;28;20104;-79
2024/02/11 13:49:40;;;;;;;2.75;2.40;;;;;;;;;;5042952;28;20101;-79
2024/02/11 13:52:07;;;;;;;3.38;2.45;;;;;;;;;;5042238;28;20107;-79
2024/02/11 13:54:33;;;;;;;2.25;1.98;;;;;;;;;;5038838;28;20047;-78
2024/02/11 13:57:00;;;;;;;2.42;2.00;;;;;;;;;;5038447;28;20033;-79
2024/02/11 13:59:26;;;;;;;1.90;1.75;;;;;;;;;;5047775;28;20017;-79
2024/02/11 14:01:52;;;;;;;2.30;2.05;;;;;;;;;;5041032;28;20021;-78
2024/02/11 14:04:18;;;;;;;2.50;2.00;;;;;;;;;;5043367;28;20056;-77
2024/02/11 14:06:45;;;;;;;1.60;1.50;;;;;;;;;;5039438;28;20017;-77
2024/02/11 14:09:12;;;;;;;2.00;1.60;;;;;;;;;;5039761;28;20041;-79
2024/02/11 14:11:39;;;;;;;2.30;2.10;;;;;;;;;;5040815;28;20102;-80
2024/02/11 14:14:09;;;;;;;2.17;1.98;;;;;;;;;;5042027;28;20033;-78
2024/02/11 14:16:35;;;;;;;1.75;1.48;;;;;;;;;;5048470;28;20185;-80
2024/02/11 14:19:05;;;;;;;1.88;1.67;;;;;;;;;;5041643;28;20025;-78
2024/02/11 14:21:35;;;;;;;2.22;1.85;;;;;;;;;;5037517;28;20048;-78
2024/02/11 14:24:02;;;;;;;2.33;2.13;;;;;;;;;;5037914;28;20109;-79
2024/02/11 14:26:28;;;;;;;2.50;1.92;;;;;;;;;;5042352;28;20097;-77
2024/02/11 14:28:55;;;;;;;2.40;1.65;;;;;;;;;;5041056;28;20049;-78
2024/02/11 14:31:22;;;;;;;2.25;1.60;;;;;;;;;;5039127;28;20100;-79
2024/02/11 14:33:48;;;;;;;1.65;1.55;;;;;;;;;;5043046;28;20033;-79
2024/02/11 14:36:15;;;;;;;2.15;1.75;;;;;;;;;;5038817;28;20481;-78
2024/02/11 14:38:43;;;;;;;1.38;1.25;;;;;;;;;;5043410;28;20030;-79
2024/02/11 14:41:10;;;;;;;2.88;1.60;;;;;;;;;;5044245;28;20089;-78
2024/02/11 14:43:40;;;;;;;1.15;1.05;;;;;;;;;;5035762;28;20017;-78
2024/02/11 14:46:06;;;;;;;2.35;1.42;;;;;;;;;;5047742;28;20018;-78
2024/02/11 14:48:33;;;;;;;1.55;1.20;;;;;;;;;;5058512;28;20017;-78
2024/02/11 14:51:05;;;;;;;1.50;1.40;;;;;;;;;;5053925;28;20014;-79
2024/02/11 14:53:32;;;;;;;1.50;1.30;;;;;;;;;;5051888;28;20022;-80
2024/02/11 14:56:00;;;;;;;2.38;1.67;;;;;;;;;;5047452;28;20053;-80
2024/02/11 14:58:27;;;;;;;1.58;1.35;;;;;;;;;;5049303;28;20025;-79
2024/02/11 15:00:54;;;;;;;1.52;1.33;;;;;;;;;;5046498;28;20053;-79
2024/02/11 15:03:21;;;;;;;1.63;1.45;;;;;;;;;;5054487;28;20029;-80
2024/02/11 15:05:47;;;;;;;1.48;1.30;;;;;;;;;;5056276;28;20077;-80
2024/02/11 15:08:15;;;;;;;1.45;1.35;;;;;;;;;;5072605;28;20021;-80
2024/02/11 15:10:42;;;;;;;1.35;1.10;;;;;;;;;;5045123;28;20034;-79
2024/02/11 15:13:08;;;;;;;1.70;1.60;;;;;;;;;;5042685;28;20022;-79
2024/02/11 15:15:36;;;;;;;1.80;1.65;;;;;;;;;;5024999;28;20040;-80
2024/02/11 15:18:03;;;;;;;1.73;1.33;;;;;;;;;;5038940;28;20037;-80
2024/02/11 15:20:31;;;;;;;2.42;1.38;;;;;;;;;;5041651;28;20021;-81
2024/02/11 15:22:57;;;;;;;1.45;1.35;;;;;;;;;;5050389;28;20028;-80
2024/02/11 15:25:23;;;;;;;1.10;1.00;;;;;;;;;;5032314;28;20045;-81
2024/02/11 15:27:53;;;;;;;3.42;1.58;;;;;;;;;;5045657;28;20037;-81
2024/02/11 15:30:25;;;;;;;4.07;2.38;;;;;;;;;;5047374;28;20024;-80
2024/02/11 15:32:51;;;;;;;8.77;4.05;;;;;;;;;;5045941;28;20017;-80
2024/02/11 15:35:17;;;;;;;8.75;4.22;;;;;;;;;;5050915;28;20041;-80
2024/02/11 15:37:43;;;;;;;6.22;3.75;;;;;;;;;;5048404;28;20021;-81
2024/02/11 15:40:10;;;;;;;4.68;3.22;;;;;;;;;;5047235;28;20112;-79
2024/02/11 15:42:36;;;;;;;3.95;2.05;;;;;;;;;;5041672;28;20518;-80
2024/02/11 15:45:05;;;;;;;2.42;2.00;;;;;;;;;;5041461;28;20030;-81
2024/02/11 15:47:31;;;;;;;2.33;1.98;;;;;;;;;;5037903;28;20056;-81
2024/02/11 15:49:59;;;;;;;3.63;1.90;;;;;;;;;;5045259;28;20029;-82
2024/02/11 15:52:25;;;;;;;1.60;1.50;;;;;;;;;;5046620;28;20026;-80
2024/02/11 15:54:52;;;;;;;2.13;1.63;;;;;;;;;;5046511;28;20029;-80
2024/02/11 15:57:20;;;;;;;1.98;1.52;;;;;;;;;;5040221;28;20407;-79
2024/02/11 15:59:46;;;;;;;2.00;1.48;;;;;;;;;;5040859;28;20029;-81
2024/02/11 16:02:13;;;;;;;1.50;1.40;;;;;;;;;;5042821;28;20034;-80
2024/02/11 16:04:41;;;;;;;1.30;1.20;;;;;;;;;;5048987;28;20021;-79
2024/02/11 16:07:07;;;;;;;1.63;1.33;;;;;;;;;;5049552;28;20052;-79